Soaring Guidance
Issued by NWS Reno, NV

Home | Current Version | Previous Version | Text Only | Print | Product List | Glossary On
Versions: 1 2 3 4 5 6 7
000
UXUS97 KREV 211448
SRGREV

SOARING FORECAST
NATIONAL WEATHER SERVICE - RENO NV
700 AM PST TUE FEB 21 2017

THIS SOARING FORECAST IS FOR THE EASTERN SIERRA AND WESTERN NEVADA
WITH SPECIFIC INDICES FOR THE GREATER RENO AREA.

THIS FORECAST IS PREPARED DAILY BY 700 AM AND IS NOT UPDATED.

FOR CURRENT FLIGHT CONDITIONS...FORECASTS...AND ADVISORIES...ACCESS
YOUR LOCAL BRIEFING OUTLET OR FLIGHT SERVICE STATION.

*******************************************************************
FORECASTED LOCAL INDICES FOR RENO:        TODAY     YESTERDAY
FORECASTED MAX TEMP AT RENO (DEG F).....     42          48
FORECASTED TRIGGER TEMPERATURE (DEG F)..     45          51
   EXCEEDED YESTERDAY BY
FORECASTED MAXIMUM ALTITUDE (FT MSL)....   7600        8400
FORECASTED SOARING INDEX (FPM)..........    198         252
FORECASTED K-INDEX.........VALID 18Z....     29          23
FORECASTED K-INDEX.........VALID 00Z....     28          27
FORECASTED LIFTED INDEX....VALID 18Z....     -1           3
FORECASTED LIFTED INDEX....VALID 00Z....     -1           1

AFTERNOON WINDS ALOFT FORECAST
MSL (FT) WIND/TEMP
9000  2629/-07
10000 2531/-09
12000 2535/-14
14000 2438/-18
16000 2442/-23
18000 2452/-28
24000 7528/-32
30000 7429/-47
34000 7429/-54
39000 2582/-50

SLIDE MOUNTAIN DATA:
     DATE       TIME     TEMP  DEWPT   RH         WIND (MPH)
                        (F)   (F)           | DIR  SPEED GUST
2017-02-21    05:50      23    22     97    | 339    5    7
2017-02-21    05:30      23    22     97    | 339    5    7
2017-02-21    05:20      23    22     97    | 339    5    9
2017-02-21    05:00      23    22     97    | 339    6    9

RENO TAF FORECAST:
KRNO 211346Z 2114/2212 20016G26KT 5SM RA BKN020 OVC050
      WS020/24050KT
     FM211500 20026G42KT P6SM -SHRA SCT020 OVC040 WS020/25045KT
     FM211700 25014G22KT 5SM -SNRA SCT015 OVC025
     FM220100 26012G19KT 4SM -SNRA SCT010 OVC025
     FM220400 25011KT 4SM -SN SCT006 OVC015
     FM220900 35009KT P6SM VCSH SCT015 OVC030

CARSON CITY TAF FORECAST:
KCXP 211126Z 2112/2212 21013G24KT P6SM -SHRA BKN025 OVC040
      WS020/24050KT
     FM211400 22018G32KT P6SM -SHRA SCT020 BKN035 WS020/25045KT
     FM211700 23011G18KT 5SM -SNRA SCT015 OVC025
     FM220200 24011G18KT 4SM -SNRA SCT008 OVC020
     FM220500 25009KT 3SM -SN SCT006 OVC012
     FM221000 28009KT P6SM VCSH SCT010 OVC020

OUTLOOK FOR THE RENO-CARSON CITY-MINDEN AREA:
.WEDNESDAY...MOSTLY CLOUDY WITH A SLIGHT CHANCE OF SNOW SHOWERS.
HIGHS 35 TO 40. WEST WINDS 10 TO 15 MPH. GUSTS UP TO 35 MPH IN
THE AFTERNOON.

SUNRISE AND SUNSET
FEBRUARY 21 2017......SUNRISE   643 AM PST   SUNSET   543 PM PST
FEBRUARY 22 2017......SUNRISE   642 AM PST   SUNSET   544 PM PST



USA.gov is the U.S. government's official web portal to all federal, state and local government web resources and services.